Time;durP1;ratioP1;P1;durP2;ratioP2;P2;SDS_P1;SDS_P2;PMS_P1;PMS_P2;Temp;Humidity;BMP_temperature;BMP_pressure;BME280_temperature;BME280_humidity;BME280_pressure;Samples;Min_cycle;Max_cycle;Signal;HPM_P1;HPM_P2
2021/05/01 00:00:47;;;;;;;9.8;6.6;;;;;;;;;;;;;
2021/05/01 00:03:12;;;;;;;11.1;7.1;;;;;;;;;;;;;
2021/05/01 00:05:38;;;;;;;8.6;6.5;;;;;;;;;;;;;
2021/05/01 00:08:03;;;;;;;9.8;6.3;;;;;;;;;;;;;
2021/05/01 00:10:30;;;;;;;8;6.6;;;;;;;;;;;;;
2021/05/01 00:12:55;;;;;;;10.3;6;;;;;;;;;;;;;
2021/05/01 00:15:21;;;;;;;8.4;6.2;;;;;;;;;;;;;
2021/05/01 00:17:58;;;;;;;8.5;6;;;;;;;;;;;;;
2021/05/01 00:20:11;;;;;;;5.5;4.8;;;;;;;;;;;;;
2021/05/01 00:22:36;;;;;;;8.9;6;;;;;;;;;;;;;
2021/05/01 00:25:03;;;;;;;11.7;6.3;;;;;;;;;;;;;
2021/05/01 00:27:28;;;;;;;8.7;5.8;;;;;;;;;;;;;
2021/05/01 00:29:53;;;;;;;7.6;5.9;;;;;;;;;;;;;
2021/05/01 00:32:18;;;;;;;8.5;6.1;;;;;;;;;;;;;
2021/05/01 00:34:43;;;;;;;10.6;5.4;;;;;;;;;;;;;
2021/05/01 00:37:08;;;;;;;9.7;6.1;;;;;;;;;;;;;
2021/05/01 00:39:33;;;;;;;9.7;5.7;;;;;;;;;;;;;
2021/05/01 00:41:59;;;;;;;14.2;6.9;;;;;;;;;;;;;
2021/05/01 00:44:24;;;;;;;9.6;7;;;;;;;;;;;;;
2021/05/01 00:46:49;;;;;;;8.9;6.1;;;;;;;;;;;;;
2021/05/01 00:49:14;;;;;;;9.9;6;;;;;;;;;;;;;
2021/05/01 00:51:39;;;;;;;7.8;5.3;;;;;;;;;;;;;
2021/05/01 00:54:04;;;;;;;8.5;6.2;;;;;;;;;;;;;
2021/05/01 00:56:30;;;;;;;9.5;6.7;;;;;;;;;;;;;
2021/05/01 00:58:55;;;;;;;10.9;6.6;;;;;;;;;;;;;
2021/05/01 01:01:20;;;;;;;8.8;6.5;;;;;;;;;;;;;
2021/05/01 01:03:45;;;;;;;11.6;6;;;;;;;;;;;;;
2021/05/01 01:06:11;;;;;;;8.9;5.7;;;;;;;;;;;;;
2021/05/01 01:08:35;;;;;;;8.3;5.9;;;;;;;;;;;;;
2021/05/01 01:11:02;;;;;;;14.3;6;;;;;;;;;;;;;
2021/05/01 01:13:27;;;;;;;11.1;5.9;;;;;;;;;;;;;
2021/05/01 01:15:52;;;;;;;10.3;7.3;;;;;;;;;;;;;
2021/05/01 01:18:20;;;;;;;13;6.1;;;;;;;;;;;;;
2021/05/01 01:21:04;;;;;;;9.6;6.7;;;;;;;;;;;;;
2021/05/01 01:23:29;;;;;;;9.9;6;;;;;;;;;;;;;
2021/05/01 01:25:54;;;;;;;12.3;5.9;;;;;;;;;;;;;
2021/05/01 01:28:20;;;;;;;13.3;7.4;;;;;;;;;;;;;
2021/05/01 01:30:45;;;;;;;7.8;6.1;;;;;;;;;;;;;
2021/05/01 01:33:11;;;;;;;12;7.2;;;;;;;;;;;;;
2021/05/01 01:35:36;;;;;;;8;6.1;;;;;;;;;;;;;
2021/05/01 01:38:02;;;;;;;9.2;6.1;;;;;;;;;;;;;
2021/05/01 01:40:27;;;;;;;9.1;6.6;;;;;;;;;;;;;
2021/05/01 01:42:53;;;;;;;9.8;6;;;;;;;;;;;;;
2021/05/01 01:45:18;;;;;;;10.1;6.5;;;;;;;;;;;;;
2021/05/01 01:47:43;;;;;;;8.3;5.9;;;;;;;;;;;;;
2021/05/01 01:50:17;;;;;;;10.3;6.6;;;;;;;;;;;;;
2021/05/01 01:52:36;;;;;;;9.2;6.8;;;;;;;;;;;;;
2021/05/01 01:54:58;;;;;;;7.1;5.3;;;;;;;;;;;;;
2021/05/01 01:57:24;;;;;;;8.2;5.9;;;;;;;;;;;;;
2021/05/01 01:59:49;;;;;;;9.5;6.4;;;;;;;;;;;;;
2021/05/01 02:02:15;;;;;;;8.2;5.4;;;;;;;;;;;;;
2021/05/01 02:04:39;;;;;;;10.3;6.5;;;;;;;;;;;;;
2021/05/01 02:07:04;;;;;;;7.6;6;;;;;;;;;;;;;
2021/05/01 02:09:29;;;;;;;9.6;5;;;;;;;;;;;;;
2021/05/01 02:11:54;;;;;;;8.1;6;;;;;;;;;;;;;
2021/05/01 02:14:20;;;;;;;8.5;5.7;;;;;;;;;;;;;
2021/05/01 02:16:54;;;;;;;8.5;5.8;;;;;;;;;;;;;
2021/05/01 02:19:20;;;;;;;8.7;6.2;;;;;;;;;;;;;
2021/05/01 02:21:46;;;;;;;9.3;6.5;;;;;;;;;;;;;
2021/05/01 02:24:11;;;;;;;8.9;6;;;;;;;;;;;;;
2021/05/01 02:26:36;;;;;;;10;7;;;;;;;;;;;;;
2021/05/01 02:29:01;;;;;;;10.2;6.6;;;;;;;;;;;;;
2021/05/01 02:31:40;;;;;;;9.9;5.4;;;;;;;;;;;;;
2021/05/01 02:34:05;;;;;;;10.6;6.5;;;;;;;;;;;;;
2021/05/01 02:36:30;;;;;;;10.9;6.7;;;;;;;;;;;;;
2021/05/01 02:38:56;;;;;;;11.1;7.5;;;;;;;;;;;;;
2021/05/01 02:41:22;;;;;;;8.4;6.3;;;;;;;;;;;;;
2021/05/01 02:43:46;;;;;;;8;6.1;;;;;;;;;;;;;
2021/05/01 02:46:11;;;;;;;8.3;6.1;;;;;;;;;;;;;
2021/05/01 02:48:36;;;;;;;9.5;6.2;;;;;;;;;;;;;
2021/05/01 02:51:01;;;;;;;7.5;5.3;;;;;;;;;;;;;
2021/05/01 02:53:27;;;;;;;9.7;5.1;;;;;;;;;;;;;
2021/05/01 02:55:52;;;;;;;6.4;4.7;;;;;;;;;;;;;
2021/05/01 02:58:19;;;;;;;10.7;6.5;;;;;;;;;;;;;
2021/05/01 03:00:44;;;;;;;11.9;6.8;;;;;;;;;;;;;
2021/05/01 03:03:10;;;;;;;7.2;6;;;;;;;;;;;;;
2021/05/01 03:05:35;;;;;;;9.2;6.6;;;;;;;;;;;;;
2021/05/01 03:08:00;;;;;;;10.2;6.5;;;;;;;;;;;;;
2021/05/01 03:10:25;;;;;;;7.9;6;;;;;;;;;;;;;
2021/05/01 03:12:50;;;;;;;9.2;6;;;;;;;;;;;;;
2021/05/01 03:15:16;;;;;;;11.9;6.8;;;;;;;;;;;;;
2021/05/01 03:17:44;;;;;;;9.6;6.4;;;;;;;;;;;;;
2021/05/01 03:20:27;;;;;;;15.4;10.1;;;;;;;;;;;;;
2021/05/01 03:22:34;;;;;;;13.1;7.9;;;;;;;;;;;;;
2021/05/01 03:24:59;;;;;;;20.7;11.7;;;;;;;;;;;;;
2021/05/01 03:27:24;;;;;;;9.4;5.4;;;;;;;;;;;;;
2021/05/01 03:30:11;;;;;;;9.7;6.1;;;;;;;;;;;;;
2021/05/01 03:32:39;;;;;;;9.8;6.3;;;;;;;;;;;;;
2021/05/01 03:35:04;;;;;;;14.7;6.8;;;;;;;;;;;;;
2021/05/01 03:37:29;;;;;;;8.4;6.2;;;;;;;;;;;;;
2021/05/01 03:39:54;;;;;;;8.6;5.9;;;;;;;;;;;;;
2021/05/01 03:42:19;;;;;;;10.2;5.8;;;;;;;;;;;;;
2021/05/01 03:44:45;;;;;;;9;5.8;;;;;;;;;;;;;
2021/05/01 03:47:10;;;;;;;9.6;5.9;;;;;;;;;;;;;
2021/05/01 03:49:35;;;;;;;7.5;5.1;;;;;;;;;;;;;
2021/05/01 03:52:00;;;;;;;9.9;5.8;;;;;;;;;;;;;
2021/05/01 03:54:25;;;;;;;8.4;5.8;;;;;;;;;;;;;
2021/05/01 03:56:50;;;;;;;6.1;4.7;;;;;;;;;;;;;
2021/05/01 03:59:15;;;;;;;10.5;5.4;;;;;;;;;;;;;
2021/05/01 04:02:32;;;;;;;10.3;6.1;;;;;;;;;;;;;
2021/05/01 04:04:57;;;;;;;9.5;5.1;;;;;;;;;;;;;
2021/05/01 04:07:23;;;;;;;5.7;5.1;;;;;;;;;;;;;
2021/05/01 04:09:57;;;;;;;6.2;4.7;;;;;;;;;;;;;
2021/05/01 04:13:06;;;;;;;10.9;5.9;;;;;;;;;;;;;
2021/05/01 04:15:27;;;;;;;7.6;6.1;;;;;;;;;;;;;
2021/05/01 04:17:53;;;;;;;9.7;6.3;;;;;;;;;;;;;
2021/05/01 04:20:18;;;;;;;10.3;6.6;;;;;;;;;;;;;
2021/05/01 04:22:43;;;;;;;8.8;6.1;;;;;;;;;;;;;
2021/05/01 04:25:08;;;;;;;10.6;6.5;;;;;;;;;;;;;
2021/05/01 04:27:34;;;;;;;8.8;6.1;;;;;;;;;;;;;
2021/05/01 04:29:59;;;;;;;11.5;6.4;;;;;;;;;;;;;
2021/05/01 04:32:24;;;;;;;8.2;5.5;;;;;;;;;;;;;
2021/05/01 04:34:51;;;;;;;8.2;5.2;;;;;;;;;;;;;
2021/05/01 04:39:41;;;;;;;10.9;6;;;;;;;;;;;;;
2021/05/01 04:42:07;;;;;;;8.4;5.8;;;;;;;;;;;;;
2021/05/01 04:44:32;;;;;;;8.3;5.6;;;;;;;;;;;;;
2021/05/01 04:46:57;;;;;;;12.7;6.1;;;;;;;;;;;;;
2021/05/01 04:49:22;;;;;;;13;5.8;;;;;;;;;;;;;
2021/05/01 04:51:47;;;;;;;9.4;5.4;;;;;;;;;;;;;
2021/05/01 04:54:12;;;;;;;8.1;5.2;;;;;;;;;;;;;
2021/05/01 04:56:39;;;;;;;11.2;6.3;;;;;;;;;;;;;
2021/05/01 04:59:04;;;;;;;7.1;5.4;;;;;;;;;;;;;
2021/05/01 05:01:29;;;;;;;10;5.9;;;;;;;;;;;;;
2021/05/01 05:03:55;;;;;;;10.3;6;;;;;;;;;;;;;
2021/05/01 05:06:20;;;;;;;13.7;6.3;;;;;;;;;;;;;
2021/05/01 05:08:45;;;;;;;12.7;5.8;;;;;;;;;;;;;
2021/05/01 05:11:10;;;;;;;7.7;5.4;;;;;;;;;;;;;
2021/05/01 05:13:37;;;;;;;7.7;5;;;;;;;;;;;;;
2021/05/01 05:16:03;;;;;;;8.6;6.5;;;;;;;;;;;;;
2021/05/01 05:18:30;;;;;;;9.7;5.9;;;;;;;;;;;;;
2021/05/01 05:20:55;;;;;;;9.9;5.9;;;;;;;;;;;;;
2021/05/01 05:23:20;;;;;;;11.3;5.6;;;;;;;;;;;;;
2021/05/01 05:25:45;;;;;;;9.5;5.6;;;;;;;;;;;;;
2021/05/01 05:28:11;;;;;;;10;5;;;;;;;;;;;;;
2021/05/01 05:30:36;;;;;;;9.5;5.1;;;;;;;;;;;;;
2021/05/01 05:33:01;;;;;;;9.6;5.6;;;;;;;;;;;;;
2021/05/01 05:35:26;;;;;;;7.9;5.9;;;;;;;;;;;;;
2021/05/01 05:37:53;;;;;;;7.5;5.6;;;;;;;;;;;;;
2021/05/01 05:40:18;;;;;;;9.3;6.7;;;;;;;;;;;;;
2021/05/01 05:42:45;;;;;;;9.7;5.5;;;;;;;;;;;;;
2021/05/01 05:45:09;;;;;;;11.2;6.1;;;;;;;;;;;;;
2021/05/01 05:47:34;;;;;;;9.8;5.9;;;;;;;;;;;;;
2021/05/01 05:49:59;;;;;;;7.9;5.7;;;;;;;;;;;;;
2021/05/01 05:52:41;;;;;;;8.2;5.4;;;;;;;;;;;;;
2021/05/01 05:55:07;;;;;;;11.1;7.3;;;;;;;;;;;;;
2021/05/01 05:57:32;;;;;;;11.1;6.1;;;;;;;;;;;;;
2021/05/01 05:59:57;;;;;;;8.7;6.5;;;;;;;;;;;;;
2021/05/01 06:02:22;;;;;;;8.3;5.1;;;;;;;;;;;;;
2021/05/01 06:04:47;;;;;;;8.5;5.1;;;;;;;;;;;;;
2021/05/01 06:07:12;;;;;;;9.5;5.5;;;;;;;;;;;;;
2021/05/01 06:09:39;;;;;;;8.7;5;;;;;;;;;;;;;
2021/05/01 06:12:04;;;;;;;6.2;4.7;;;;;;;;;;;;;
2021/05/01 06:14:32;;;;;;;6;3.9;;;;;;;;;;;;;
2021/05/01 06:17:02;;;;;;;6.9;4.9;;;;;;;;;;;;;
2021/05/01 06:19:28;;;;;;;6.7;4.3;;;;;;;;;;;;;
2021/05/01 06:21:53;;;;;;;8.2;4.8;;;;;;;;;;;;;
2021/05/01 06:24:20;;;;;;;7.6;5.1;;;;;;;;;;;;;
2021/05/01 06:26:45;;;;;;;7.7;5;;;;;;;;;;;;;
2021/05/01 06:29:11;;;;;;;9.1;4.9;;;;;;;;;;;;;
2021/05/01 06:31:37;;;;;;;6.1;4;;;;;;;;;;;;;
2021/05/01 06:34:02;;;;;;;7.1;4.7;;;;;;;;;;;;;
2021/05/01 06:36:28;;;;;;;8.1;5;;;;;;;;;;;;;
2021/05/01 06:38:58;;;;;;;5.8;4.4;;;;;;;;;;;;;
2021/05/01 06:41:18;;;;;;;6.8;4.5;;;;;;;;;;;;;
2021/05/01 06:43:47;;;;;;;9.3;4.5;;;;;;;;;;;;;
2021/05/01 06:46:10;;;;;;;8;5.2;;;;;;;;;;;;;
2021/05/01 06:48:35;;;;;;;8.7;5.1;;;;;;;;;;;;;
2021/05/01 06:51:01;;;;;;;6.1;4.3;;;;;;;;;;;;;
2021/05/01 06:53:29;;;;;;;6.5;4.2;;;;;;;;;;;;;
2021/05/01 06:55:52;;;;;;;5.2;4.1;;;;;;;;;;;;;
2021/05/01 06:58:17;;;;;;;6.4;4.8;;;;;;;;;;;;;
2021/05/01 07:00:42;;;;;;;9.6;4;;;;;;;;;;;;;
2021/05/01 07:03:07;;;;;;;8.1;4.3;;;;;;;;;;;;;
2021/05/01 07:05:33;;;;;;;7.4;4;;;;;;;;;;;;;
2021/05/01 07:07:58;;;;;;;7.1;3.6;;;;;;;;;;;;;
2021/05/01 07:10:25;;;;;;;6;3.8;;;;;;;;;;;;;
2021/05/01 07:12:50;;;;;;;8.4;4.5;;;;;;;;;;;;;
2021/05/01 07:15:17;;;;;;;4.4;3.2;;;;;;;;;;;;;
2021/05/01 07:17:41;;;;;;;3.2;2.2;;;;;;;;;;;;;
2021/05/01 07:20:08;;;;;;;11.1;3.1;;;;;;;;;;;;;
2021/05/01 07:22:33;;;;;;;6.2;3;;;;;;;;;;;;;
2021/05/01 07:24:59;;;;;;;4;2.2;;;;;;;;;;;;;
2021/05/01 07:27:23;;;;;;;4.9;2.4;;;;;;;;;;;;;
2021/05/01 07:29:49;;;;;;;3.5;2.2;;;;;;;;;;;;;
2021/05/01 07:32:15;;;;;;;4.4;3;;;;;;;;;;;;;
2021/05/01 07:34:42;;;;;;;2.8;1.9;;;;;;;;;;;;;
2021/05/01 07:37:06;;;;;;;2.2;1.8;;;;;;;;;;;;;
2021/05/01 07:39:31;;;;;;;3.7;2.2;;;;;;;;;;;;;
2021/05/01 07:41:58;;;;;;;3;2.5;;;;;;;;;;;;;
2021/05/01 07:44:23;;;;;;;3.4;2.7;;;;;;;;;;;;;
2021/05/01 07:46:48;;;;;;;3.7;2.7;;;;;;;;;;;;;
2021/05/01 07:49:13;;;;;;;3.8;2.5;;;;;;;;;;;;;
2021/05/01 07:51:40;;;;;;;3.6;2.6;;;;;;;;;;;;;
2021/05/01 07:54:04;;;;;;;5.4;2.7;;;;;;;;;;;;;
2021/05/01 07:56:30;;;;;;;3.5;2.7;;;;;;;;;;;;;
2021/05/01 07:58:55;;;;;;;4.1;2.9;;;;;;;;;;;;;
2021/05/01 08:01:21;;;;;;;4.6;2.9;;;;;;;;;;;;;
2021/05/01 08:03:46;;;;;;;3.9;2.9;;;;;;;;;;;;;
2021/05/01 08:06:15;;;;;;;3.2;2.7;;;;;;;;;;;;;
2021/05/01 08:08:40;;;;;;;5;2.8;;;;;;;;;;;;;
2021/05/01 08:11:05;;;;;;;4.8;2.9;;;;;;;;;;;;;
2021/05/01 08:13:30;;;;;;;3.9;2.6;;;;;;;;;;;;;
2021/05/01 08:16:00;;;;;;;5.4;3.7;;;;;;;;;;;;;
2021/05/01 08:18:25;;;;;;;4.9;3;;;;;;;;;;;;;
2021/05/01 08:20:51;;;;;;;3.8;2.6;;;;;;;;;;;;;
2021/05/01 08:23:17;;;;;;;4;2.8;;;;;;;;;;;;;
2021/05/01 08:25:43;;;;;;;3.2;2.5;;;;;;;;;;;;;
2021/05/01 08:28:08;;;;;;;4.3;3.5;;;;;;;;;;;;;
2021/05/01 08:30:33;;;;;;;5.3;2.4;;;;;;;;;;;;;
2021/05/01 08:32:58;;;;;;;3.9;2.6;;;;;;;;;;;;;
2021/05/01 08:35:23;;;;;;;4.3;2.7;;;;;;;;;;;;;
2021/05/01 08:37:48;;;;;;;4;2.8;;;;;;;;;;;;;
2021/05/01 08:40:50;;;;;;;3;2.7;;;;;;;;;;;;;
2021/05/01 08:43:09;;;;;;;3.3;2.3;;;;;;;;;;;;;
2021/05/01 08:45:34;;;;;;;2.2;2;;;;;;;;;;;;;
2021/05/01 08:48:00;;;;;;;4.4;2.6;;;;;;;;;;;;;
2021/05/01 08:50:25;;;;;;;4.5;2.4;;;;;;;;;;;;;
2021/05/01 08:52:50;;;;;;;4.1;2.3;;;;;;;;;;;;;
2021/05/01 08:55:34;;;;;;;3.4;2.4;;;;;;;;;;;;;
2021/05/01 08:57:40;;;;;;;4.8;2.6;;;;;;;;;;;;;
2021/05/01 09:00:05;;;;;;;5.6;2.5;;;;;;;;;;;;;
2021/05/01 09:02:32;;;;;;;3.9;2.7;;;;;;;;;;;;;
2021/05/01 09:04:57;;;;;;;3.6;2.6;;;;;;;;;;;;;
2021/05/01 09:07:23;;;;;;;3.4;2.4;;;;;;;;;;;;;
2021/05/01 09:09:48;;;;;;;3;2.5;;;;;;;;;;;;;
2021/05/01 09:12:13;;;;;;;2.5;1.6;;;;;;;;;;;;;
2021/05/01 09:14:38;;;;;;;2.2;2;;;;;;;;;;;;;
2021/05/01 09:17:03;;;;;;;3.3;2.4;;;;;;;;;;;;;
2021/05/01 09:19:28;;;;;;;2.8;2.3;;;;;;;;;;;;;
2021/05/01 09:21:53;;;;;;;2.3;1.8;;;;;;;;;;;;;
2021/05/01 09:24:18;;;;;;;2.7;2.1;;;;;;;;;;;;;
2021/05/01 09:26:43;;;;;;;4.3;2.3;;;;;;;;;;;;;
2021/05/01 09:29:08;;;;;;;5.7;3.1;;;;;;;;;;;;;
2021/05/01 09:31:34;;;;;;;4.1;2.4;;;;;;;;;;;;;
2021/05/01 09:33:59;;;;;;;2.2;2;;;;;;;;;;;;;
2021/05/01 09:36:25;;;;;;;3.4;2.4;;;;;;;;;;;;;
2021/05/01 09:38:50;;;;;;;2.8;2;;;;;;;;;;;;;
2021/05/01 09:41:15;;;;;;;5.1;2.9;;;;;;;;;;;;;
2021/05/01 09:43:41;;;;;;;2.2;1.6;;;;;;;;;;;;;
2021/05/01 09:46:06;;;;;;;6;2.5;;;;;;;;;;;;;
2021/05/01 09:48:31;;;;;;;3.4;2.7;;;;;;;;;;;;;
2021/05/01 09:50:56;;;;;;;3.4;2.3;;;;;;;;;;;;;
2021/05/01 09:53:21;;;;;;;5.3;2.3;;;;;;;;;;;;;
2021/05/01 09:55:46;;;;;;;5;2.4;;;;;;;;;;;;;
2021/05/01 09:58:11;;;;;;;4.6;2;;;;;;;;;;;;;
2021/05/01 10:00:36;;;;;;;4.6;3;;;;;;;;;;;;;
2021/05/01 10:03:02;;;;;;;5.4;2.4;;;;;;;;;;;;;
2021/05/01 10:05:27;;;;;;;5.6;2.7;;;;;;;;;;;;;
2021/05/01 10:07:53;;;;;;;5.3;2.8;;;;;;;;;;;;;
2021/05/01 10:10:18;;;;;;;4.2;2.7;;;;;;;;;;;;;
2021/05/01 10:12:43;;;;;;;6.8;3.3;;;;;;;;;;;;;
2021/05/01 10:15:10;;;;;;;6.9;2.7;;;;;;;;;;;;;
2021/05/01 10:17:35;;;;;;;4;2.9;;;;;;;;;;;;;
2021/05/01 10:20:00;;;;;;;5.9;3;;;;;;;;;;;;;
2021/05/01 10:22:25;;;;;;;3.7;2.7;;;;;;;;;;;;;
2021/05/01 10:24:51;;;;;;;4.6;3;;;;;;;;;;;;;
2021/05/01 10:27:18;;;;;;;3.6;2.6;;;;;;;;;;;;;
2021/05/01 10:29:44;;;;;;;4.1;2.7;;;;;;;;;;;;;
2021/05/01 10:32:07;;;;;;;4.1;3.1;;;;;;;;;;;;;
2021/05/01 10:34:33;;;;;;;3.7;2.8;;;;;;;;;;;;;
2021/05/01 10:36:59;;;;;;;3.8;2.7;;;;;;;;;;;;;
2021/05/01 10:39:24;;;;;;;4.2;2.7;;;;;;;;;;;;;
2021/05/01 10:41:49;;;;;;;3.4;2.9;;;;;;;;;;;;;
2021/05/01 10:44:14;;;;;;;3.3;2.4;;;;;;;;;;;;;
2021/05/01 10:46:39;;;;;;;3.2;2.4;;;;;;;;;;;;;
2021/05/01 10:49:04;;;;;;;5.3;2.7;;;;;;;;;;;;;
2021/05/01 10:51:29;;;;;;;3.6;2.2;;;;;;;;;;;;;
2021/05/01 10:53:54;;;;;;;6.6;2.8;;;;;;;;;;;;;
2021/05/01 10:56:19;;;;;;;2.7;2.4;;;;;;;;;;;;;
2021/05/01 10:58:45;;;;;;;3.6;2.7;;;;;;;;;;;;;
2021/05/01 11:01:10;;;;;;;3.2;2.4;;;;;;;;;;;;;
2021/05/01 11:03:37;;;;;;;4;3.2;;;;;;;;;;;;;
2021/05/01 11:06:02;;;;;;;4.3;2.6;;;;;;;;;;;;;
2021/05/01 11:08:28;;;;;;;3.7;3.1;;;;;;;;;;;;;
2021/05/01 11:10:54;;;;;;;5.7;2.7;;;;;;;;;;;;;
2021/05/01 11:13:19;;;;;;;7.6;3.2;;;;;;;;;;;;;
2021/05/01 11:15:50;;;;;;;4.1;2.3;;;;;;;;;;;;;
2021/05/01 11:18:12;;;;;;;6.5;3.1;;;;;;;;;;;;;
2021/05/01 11:20:37;;;;;;;3.2;2.5;;;;;;;;;;;;;
2021/05/01 11:23:03;;;;;;;4.6;3.1;;;;;;;;;;;;;
2021/05/01 11:25:30;;;;;;;4.2;2.6;;;;;;;;;;;;;
2021/05/01 11:27:54;;;;;;;4.6;3.4;;;;;;;;;;;;;
2021/05/01 11:30:19;;;;;;;7.2;3;;;;;;;;;;;;;
2021/05/01 11:32:45;;;;;;;5.2;2.7;;;;;;;;;;;;;
2021/05/01 11:35:10;;;;;;;3.7;2.7;;;;;;;;;;;;;
2021/05/01 11:37:35;;;;;;;5.4;3.1;;;;;;;;;;;;;
2021/05/01 11:40:01;;;;;;;3.6;2.6;;;;;;;;;;;;;
2021/05/01 11:42:26;;;;;;;4.7;3;;;;;;;;;;;;;
2021/05/01 11:44:51;;;;;;;3.3;2.8;;;;;;;;;;;;;
2021/05/01 11:47:16;;;;;;;2.6;2.2;;;;;;;;;;;;;
2021/05/01 11:49:42;;;;;;;4.2;2.9;;;;;;;;;;;;;
2021/05/01 11:52:07;;;;;;;4.8;3;;;;;;;;;;;;;
2021/05/01 11:54:33;;;;;;;4.6;2.5;;;;;;;;;;;;;
2021/05/01 11:56:58;;;;;;;4.1;3.1;;;;;;;;;;;;;
2021/05/01 11:59:23;;;;;;;7.3;2.9;;;;;;;;;;;;;
2021/05/01 12:01:49;;;;;;;7;2.3;;;;;;;;;;;;;
2021/05/01 12:04:14;;;;;;;3.7;2.7;;;;;;;;;;;;;
2021/05/01 12:06:39;;;;;;;3.9;2.8;;;;;;;;;;;;;
2021/05/01 12:09:04;;;;;;;5.1;3.4;;;;;;;;;;;;;
2021/05/01 12:11:30;;;;;;;3.5;2.7;;;;;;;;;;;;;
2021/05/01 12:13:56;;;;;;;4.8;3;;;;;;;;;;;;;
2021/05/01 12:16:24;;;;;;;4;2.7;;;;;;;;;;;;;
2021/05/01 12:18:49;;;;;;;4.4;3.2;;;;;;;;;;;;;
2021/05/01 12:21:18;;;;;;;4.1;2.8;;;;;;;;;;;;;
2021/05/01 12:23:43;;;;;;;5.2;3.3;;;;;;;;;;;;;
2021/05/01 12:26:08;;;;;;;6;3.1;;;;;;;;;;;;;
2021/05/01 12:28:33;;;;;;;5.1;2.9;;;;;;;;;;;;;
2021/05/01 12:31:01;;;;;;;3.9;2.7;;;;;;;;;;;;;
2021/05/01 12:33:23;;;;;;;3.8;2.7;;;;;;;;;;;;;
2021/05/01 12:35:50;;;;;;;3.6;2.5;;;;;;;;;;;;;
2021/05/01 12:38:15;;;;;;;5.1;3.2;;;;;;;;;;;;;
2021/05/01 12:40:42;;;;;;;3.5;2.7;;;;;;;;;;;;;
2021/05/01 12:43:07;;;;;;;5.1;3.4;;;;;;;;;;;;;
2021/05/01 12:45:33;;;;;;;3.6;2.7;;;;;;;;;;;;;
2021/05/01 12:47:58;;;;;;;6;3.2;;;;;;;;;;;;;
2021/05/01 12:50:25;;;;;;;4.9;2.8;;;;;;;;;;;;;
2021/05/01 12:52:49;;;;;;;3.2;2.8;;;;;;;;;;;;;
2021/05/01 12:55:14;;;;;;;5.5;2.7;;;;;;;;;;;;;
2021/05/01 12:57:40;;;;;;;6.8;2.8;;;;;;;;;;;;;
2021/05/01 13:00:04;;;;;;;3;2.5;;;;;;;;;;;;;
2021/05/01 13:02:29;;;;;;;6.9;2.9;;;;;;;;;;;;;
2021/05/01 13:04:55;;;;;;;4;2.6;;;;;;;;;;;;;
2021/05/01 13:07:20;;;;;;;3.9;2.5;;;;;;;;;;;;;
2021/05/01 13:09:48;;;;;;;4;2.9;;;;;;;;;;;;;
2021/05/01 13:12:12;;;;;;;3.6;3;;;;;;;;;;;;;
2021/05/01 13:14:37;;;;;;;7.6;2.4;;;;;;;;;;;;;
2021/05/01 13:17:03;;;;;;;4.1;3;;;;;;;;;;;;;
2021/05/01 13:19:28;;;;;;;4.3;3;;;;;;;;;;;;;
2021/05/01 13:21:58;;;;;;;2.9;2.2;;;;;;;;;;;;;
2021/05/01 13:24:18;;;;;;;4.8;2.5;;;;;;;;;;;;;
2021/05/01 13:26:43;;;;;;;3.5;2.4;;;;;;;;;;;;;
2021/05/01 13:29:08;;;;;;;3.2;2.9;;;;;;;;;;;;;
2021/05/01 13:31:34;;;;;;;2.8;2.4;;;;;;;;;;;;;
2021/05/01 13:34:00;;;;;;;5;3.2;;;;;;;;;;;;;
2021/05/01 13:36:25;;;;;;;4.3;3.2;;;;;;;;;;;;;
2021/05/01 13:39:27;;;;;;;5.7;2.9;;;;;;;;;;;;;
2021/05/01 13:41:47;;;;;;;2.6;2.3;;;;;;;;;;;;;
2021/05/01 13:44:17;;;;;;;3.8;2.8;;;;;;;;;;;;;
2021/05/01 13:46:37;;;;;;;5.1;2.8;;;;;;;;;;;;;
2021/05/01 13:49:02;;;;;;;3.5;2.8;;;;;;;;;;;;;
2021/05/01 13:51:28;;;;;;;7;2.6;;;;;;;;;;;;;
2021/05/01 13:53:52;;;;;;;4.4;3.2;;;;;;;;;;;;;
2021/05/01 13:56:19;;;;;;;5.4;3.3;;;;;;;;;;;;;
2021/05/01 13:58:43;;;;;;;5.6;3.4;;;;;;;;;;;;;
2021/05/01 14:01:08;;;;;;;6;3;;;;;;;;;;;;;
2021/05/01 14:03:33;;;;;;;4.2;2.8;;;;;;;;;;;;;
2021/05/01 14:05:59;;;;;;;3.3;2.7;;;;;;;;;;;;;
2021/05/01 14:08:24;;;;;;;3.1;2.4;;;;;;;;;;;;;
2021/05/01 14:10:51;;;;;;;2.4;2.1;;;;;;;;;;;;;
2021/05/01 14:13:14;;;;;;;3.1;2.7;;;;;;;;;;;;;
2021/05/01 14:15:43;;;;;;;8.5;2.7;;;;;;;;;;;;;
2021/05/01 14:18:08;;;;;;;4.9;2.8;;;;;;;;;;;;;
2021/05/01 14:20:33;;;;;;;2.5;2;;;;;;;;;;;;;
2021/05/01 14:22:58;;;;;;;5;2.6;;;;;;;;;;;;;
2021/05/01 14:25:23;;;;;;;4.9;3;;;;;;;;;;;;;
2021/05/01 14:27:48;;;;;;;3.1;2.4;;;;;;;;;;;;;
2021/05/01 14:30:13;;;;;;;3.9;3;;;;;;;;;;;;;
2021/05/01 14:32:39;;;;;;;3.3;3;;;;;;;;;;;;;
2021/05/01 14:35:04;;;;;;;4.7;2.9;;;;;;;;;;;;;
2021/05/01 14:37:29;;;;;;;3.8;2.2;;;;;;;;;;;;;
2021/05/01 14:39:54;;;;;;;3.8;2.8;;;;;;;;;;;;;
2021/05/01 14:42:19;;;;;;;4.5;3;;;;;;;;;;;;;
2021/05/01 14:44:44;;;;;;;2.9;2.2;;;;;;;;;;;;;
2021/05/01 14:47:14;;;;;;;4.3;2.4;;;;;;;;;;;;;
2021/05/01 14:49:35;;;;;;;2.4;2.2;;;;;;;;;;;;;
2021/05/01 14:52:00;;;;;;;3.9;2.2;;;;;;;;;;;;;
2021/05/01 14:54:25;;;;;;;4.5;2.5;;;;;;;;;;;;;
2021/05/01 14:56:50;;;;;;;3.3;2.9;;;;;;;;;;;;;
2021/05/01 14:59:15;;;;;;;4.7;3.2;;;;;;;;;;;;;
2021/05/01 15:01:40;;;;;;;6.7;3.2;;;;;;;;;;;;;
2021/05/01 15:04:05;;;;;;;6.3;3.4;;;;;;;;;;;;;
2021/05/01 15:06:31;;;;;;;3.4;2.5;;;;;;;;;;;;;
2021/05/01 15:08:56;;;;;;;4.6;2.9;;;;;;;;;;;;;
2021/05/01 15:11:21;;;;;;;4.1;3.2;;;;;;;;;;;;;
2021/05/01 15:13:46;;;;;;;3.9;2.9;;;;;;;;;;;;;
2021/05/01 15:16:11;;;;;;;4.6;3.2;;;;;;;;;;;;;
2021/05/01 15:18:36;;;;;;;4.4;3.2;;;;;;;;;;;;;
2021/05/01 15:21:03;;;;;;;5.2;3.7;;;;;;;;;;;;;
2021/05/01 15:23:27;;;;;;;5.6;3.5;;;;;;;;;;;;;
2021/05/01 15:25:52;;;;;;;5;3.2;;;;;;;;;;;;;
2021/05/01 15:28:17;;;;;;;4.5;3.4;;;;;;;;;;;;;
2021/05/01 15:30:43;;;;;;;3.2;2.8;;;;;;;;;;;;;
2021/05/01 15:33:08;;;;;;;3.7;3;;;;;;;;;;;;;
2021/05/01 15:35:33;;;;;;;5.1;3.3;;;;;;;;;;;;;
2021/05/01 15:38:00;;;;;;;4.9;3.5;;;;;;;;;;;;;
2021/05/01 15:40:23;;;;;;;4.8;3;;;;;;;;;;;;;
2021/05/01 15:42:49;;;;;;;3.4;3.1;;;;;;;;;;;;;
2021/05/01 15:45:14;;;;;;;3.5;3.2;;;;;;;;;;;;;
2021/05/01 15:47:41;;;;;;;5.5;3.9;;;;;;;;;;;;;
2021/05/01 15:50:05;;;;;;;6;3;;;;;;;;;;;;;
2021/05/01 15:52:30;;;;;;;6.8;4.3;;;;;;;;;;;;;
2021/05/01 15:54:55;;;;;;;5.4;2.7;;;;;;;;;;;;;
2021/05/01 15:57:21;;;;;;;3.5;2.8;;;;;;;;;;;;;
2021/05/01 15:59:46;;;;;;;4.4;3.5;;;;;;;;;;;;;
2021/05/01 16:02:12;;;;;;;6.7;3.6;;;;;;;;;;;;;
2021/05/01 16:04:38;;;;;;;5.3;3.1;;;;;;;;;;;;;
2021/05/01 16:07:03;;;;;;;4.4;2.8;;;;;;;;;;;;;
2021/05/01 16:09:30;;;;;;;3.7;3.2;;;;;;;;;;;;;
2021/05/01 16:11:53;;;;;;;3.6;2.6;;;;;;;;;;;;;
2021/05/01 16:14:18;;;;;;;4.4;3.8;;;;;;;;;;;;;
2021/05/01 16:16:44;;;;;;;3.6;2.8;;;;;;;;;;;;;
2021/05/01 16:19:08;;;;;;;3.8;2.5;;;;;;;;;;;;;
2021/05/01 16:21:33;;;;;;;4.7;2.9;;;;;;;;;;;;;
2021/05/01 16:23:58;;;;;;;3.9;2.6;;;;;;;;;;;;;
2021/05/01 16:26:23;;;;;;;3.2;2.4;;;;;;;;;;;;;
2021/05/01 16:28:48;;;;;;;2.7;2.4;;;;;;;;;;;;;
2021/05/01 16:31:13;;;;;;;3;2.5;;;;;;;;;;;;;
2021/05/01 16:33:38;;;;;;;3.7;3;;;;;;;;;;;;;
2021/05/01 16:36:05;;;;;;;4.9;2.8;;;;;;;;;;;;;
2021/05/01 16:38:30;;;;;;;5.2;3;;;;;;;;;;;;;
2021/05/01 16:40:56;;;;;;;4.6;2.4;;;;;;;;;;;;;
2021/05/01 16:43:21;;;;;;;3.9;3.2;;;;;;;;;;;;;
2021/05/01 16:45:47;;;;;;;3.1;2.5;;;;;;;;;;;;;
2021/05/01 16:48:13;;;;;;;4.4;2.5;;;;;;;;;;;;;
2021/05/01 16:50:38;;;;;;;3.9;2.2;;;;;;;;;;;;;
2021/05/01 16:53:03;;;;;;;3.4;2;;;;;;;;;;;;;
2021/05/01 16:55:31;;;;;;;4.2;2.6;;;;;;;;;;;;;
2021/05/01 16:57:56;;;;;;;3.6;2.1;;;;;;;;;;;;;
2021/05/01 17:00:21;;;;;;;3.2;2.1;;;;;;;;;;;;;
2021/05/01 17:02:46;;;;;;;2.4;1.8;;;;;;;;;;;;;
2021/05/01 17:05:11;;;;;;;2.8;1.7;;;;;;;;;;;;;
2021/05/01 17:07:36;;;;;;;2.5;1.8;;;;;;;;;;;;;
2021/05/01 17:10:03;;;;;;;3.2;1.8;;;;;;;;;;;;;
2021/05/01 17:12:28;;;;;;;2.2;1.8;;;;;;;;;;;;;
2021/05/01 17:14:54;;;;;;;3.3;1.9;;;;;;;;;;;;;
2021/05/01 17:17:19;;;;;;;1.7;1.6;;;;;;;;;;;;;
2021/05/01 17:19:45;;;;;;;4;1.8;;;;;;;;;;;;;
2021/05/01 17:22:11;;;;;;;1.8;1.7;;;;;;;;;;;;;
2021/05/01 17:24:38;;;;;;;2.6;1.9;;;;;;;;;;;;;
2021/05/01 17:27:02;;;;;;;1.8;1.6;;;;;;;;;;;;;
2021/05/01 17:29:29;;;;;;;2.8;1.7;;;;;;;;;;;;;
2021/05/01 17:31:53;;;;;;;1.7;1.5;;;;;;;;;;;;;
2021/05/01 17:34:18;;;;;;;2;1.8;;;;;;;;;;;;;
2021/05/01 17:37:03;;;;;;;2.7;1.7;;;;;;;;;;;;;
2021/05/01 17:39:28;;;;;;;1.3;1.2;;;;;;;;;;;;;
2021/05/01 17:41:53;;;;;;;3;1.4;;;;;;;;;;;;;
2021/05/01 17:44:23;;;;;;;2;1.6;;;;;;;;;;;;;
2021/05/01 17:46:48;;;;;;;2;1.5;;;;;;;;;;;;;
2021/05/01 17:49:13;;;;;;;1.6;1.3;;;;;;;;;;;;;
2021/05/01 17:51:38;;;;;;;1.2;1.1;;;;;;;;;;;;;
2021/05/01 17:54:04;;;;;;;1.5;1.3;;;;;;;;;;;;;
2021/05/01 17:56:29;;;;;;;1.2;1;;;;;;;;;;;;;
2021/05/01 17:58:54;;;;;;;2.8;1.5;;;;;;;;;;;;;
2021/05/01 18:01:20;;;;;;;1.7;1.3;;;;;;;;;;;;;
2021/05/01 18:03:46;;;;;;;1.2;1.1;;;;;;;;;;;;;
2021/05/01 18:06:11;;;;;;;1.9;1.4;;;;;;;;;;;;;
2021/05/01 18:08:36;;;;;;;1.2;1.1;;;;;;;;;;;;;
2021/05/01 18:11:01;;;;;;;1.5;1.3;;;;;;;;;;;;;
2021/05/01 18:13:26;;;;;;;1.3;1;;;;;;;;;;;;;
2021/05/01 18:15:52;;;;;;;1.3;1.1;;;;;;;;;;;;;
2021/05/01 18:18:16;;;;;;;1.2;1.1;;;;;;;;;;;;;
2021/05/01 18:20:41;;;;;;;1;0.8;;;;;;;;;;;;;
2021/05/01 18:23:07;;;;;;;1.4;0.9;;;;;;;;;;;;;
2021/05/01 18:25:33;;;;;;;1.4;0.9;;;;;;;;;;;;;
2021/05/01 18:27:58;;;;;;;1.4;1.2;;;;;;;;;;;;;
2021/05/01 18:30:23;;;;;;;1.2;1;;;;;;;;;;;;;
2021/05/01 18:32:49;;;;;;;1.5;1.2;;;;;;;;;;;;;
2021/05/01 18:35:14;;;;;;;1.1;1;;;;;;;;;;;;;
2021/05/01 18:37:40;;;;;;;1.7;1.3;;;;;;;;;;;;;
2021/05/01 18:40:07;;;;;;;2.3;1.5;;;;;;;;;;;;;
2021/05/01 18:42:33;;;;;;;1.1;1;;;;;;;;;;;;;
2021/05/01 18:44:56;;;;;;;1.9;1.5;;;;;;;;;;;;;
2021/05/01 18:47:22;;;;;;;1.7;1.4;;;;;;;;;;;;;
2021/05/01 18:49:47;;;;;;;1.1;1;;;;;;;;;;;;;
2021/05/01 18:52:14;;;;;;;1.3;1.1;;;;;;;;;;;;;
2021/05/01 18:54:39;;;;;;;2.1;1.5;;;;;;;;;;;;;
2021/05/01 18:57:04;;;;;;;0.7;0.7;;;;;;;;;;;;;
2021/05/01 18:59:29;;;;;;;1.7;1.3;;;;;;;;;;;;;
2021/05/01 19:01:55;;;;;;;1.7;1.4;;;;;;;;;;;;;
2021/05/01 19:04:19;;;;;;;1.6;1.3;;;;;;;;;;;;;
2021/05/01 19:06:45;;;;;;;2;1.1;;;;;;;;;;;;;
2021/05/01 19:09:10;;;;;;;1.1;1;;;;;;;;;;;;;
2021/05/01 19:11:35;;;;;;;1.3;1.2;;;;;;;;;;;;;
2021/05/01 19:14:00;;;;;;;1.1;0.7;;;;;;;;;;;;;
2021/05/01 19:16:25;;;;;;;1.4;0.8;;;;;;;;;;;;;
2021/05/01 19:18:50;;;;;;;0.8;0.8;;;;;;;;;;;;;
2021/05/01 19:21:15;;;;;;;0.6;0.6;;;;;;;;;;;;;
2021/05/01 19:23:41;;;;;;;0.8;0.8;;;;;;;;;;;;;
2021/05/01 19:26:08;;;;;;;0.9;0.7;;;;;;;;;;;;;
2021/05/01 19:28:32;;;;;;;1;0.6;;;;;;;;;;;;;
2021/05/01 19:30:57;;;;;;;0.8;0.7;;;;;;;;;;;;;
2021/05/01 19:33:23;;;;;;;0.7;0.6;;;;;;;;;;;;;
2021/05/01 19:35:49;;;;;;;1.4;0.7;;;;;;;;;;;;;
2021/05/01 19:38:14;;;;;;;0.8;0.6;;;;;;;;;;;;;
2021/05/01 19:40:40;;;;;;;1.6;0.7;;;;;;;;;;;;;
2021/05/01 19:43:06;;;;;;;0.7;0.7;;;;;;;;;;;;;
2021/05/01 19:45:35;;;;;;;1.3;1.2;;;;;;;;;;;;;
2021/05/01 19:47:58;;;;;;;0.8;0.8;;;;;;;;;;;;;
2021/05/01 19:50:22;;;;;;;1;0.9;;;;;;;;;;;;;
2021/05/01 19:52:47;;;;;;;1;0.8;;;;;;;;;;;;;
2021/05/01 19:55:13;;;;;;;1.6;1.2;;;;;;;;;;;;;
2021/05/01 19:57:38;;;;;;;0.7;0.7;;;;;;;;;;;;;
2021/05/01 20:00:05;;;;;;;1.4;1.1;;;;;;;;;;;;;
2021/05/01 20:02:30;;;;;;;1;0.5;;;;;;;;;;;;;
2021/05/01 20:04:55;;;;;;;0.9;0.9;;;;;;;;;;;;;
2021/05/01 20:07:20;;;;;;;1.2;0.8;;;;;;;;;;;;;
2021/05/01 20:09:45;;;;;;;1;0.9;;;;;;;;;;;;;
2021/05/01 20:12:10;;;;;;;1;0.7;;;;;;;;;;;;;
2021/05/01 20:14:35;;;;;;;1.6;0.6;;;;;;;;;;;;;
2021/05/01 20:17:02;;;;;;;2;0.9;;;;;;;;;;;;;
2021/05/01 20:19:26;;;;;;;0.8;0.8;;;;;;;;;;;;;
2021/05/01 20:21:52;;;;;;;1;0.8;;;;;;;;;;;;;
2021/05/01 20:24:18;;;;;;;0.7;0.7;;;;;;;;;;;;;
2021/05/01 20:26:42;;;;;;;1.8;1;;;;;;;;;;;;;
2021/05/01 20:29:08;;;;;;;1.2;0.4;;;;;;;;;;;;;
2021/05/01 20:31:35;;;;;;;0.8;0.8;;;;;;;;;;;;;
2021/05/01 20:33:58;;;;;;;0.9;0.6;;;;;;;;;;;;;
2021/05/01 20:36:25;;;;;;;0.7;0.6;;;;;;;;;;;;;
2021/05/01 20:38:50;;;;;;;1.7;0.8;;;;;;;;;;;;;
2021/05/01 20:41:15;;;;;;;0.6;0.6;;;;;;;;;;;;;